createdAt,value
2018-05-25T00:00:11.451Z,0.00
2018-05-25T00:02:04.221Z,0.00
2018-05-25T00:03:04.142Z,0.00
2018-05-25T00:04:56.919Z,0.00
2018-05-25T00:05:56.851Z,0.00
2018-05-25T00:07:49.625Z,0.00
2018-05-25T00:08:49.549Z,0.00
2018-05-25T00:10:42.327Z,0.00
2018-05-25T00:11:42.253Z,0.00
2018-05-25T00:13:35.027Z,0.00
2018-05-25T00:14:34.953Z,0.00
2018-05-25T00:16:27.773Z,0.00
2018-05-25T00:17:27.665Z,0.00
2018-05-25T00:19:20.443Z,0.00
2018-05-25T00:20:20.374Z,0.00
2018-05-25T00:22:13.157Z,0.00
2018-05-25T00:23:13.076Z,0.00
2018-05-25T00:25:05.847Z,0.00
2018-05-25T00:26:05.787Z,0.00
2018-05-25T00:27:58.571Z,0.00
2018-05-25T00:28:58.490Z,0.00
2018-05-25T00:30:51.258Z,0.00
2018-05-25T00:31:51.195Z,0.00
2018-05-25T00:33:43.978Z,0.00
2018-05-25T00:34:43.901Z,0.00
2018-05-25T00:36:36.690Z,0.00
2018-05-25T00:37:36.616Z,0.00
2018-05-25T00:39:29.376Z,0.00
2018-05-25T00:40:29.306Z,0.00
2018-05-25T00:42:22.104Z,0.00
2018-05-25T00:43:22.030Z,0.00
2018-05-25T00:45:14.800Z,0.00
2018-05-25T00:46:14.735Z,0.00
2018-05-25T00:48:07.513Z,0.00
2018-05-25T00:49:07.444Z,0.00
2018-05-25T00:51:00.212Z,0.00
2018-05-25T00:52:00.153Z,0.00
2018-05-25T00:53:52.964Z,0.00
2018-05-25T00:54:52.878Z,0.00
2018-05-25T00:56:45.640Z,0.00
2018-05-25T00:57:45.567Z,0.00
2018-05-25T00:59:38.349Z,0.00
2018-05-25T01:00:38.300Z,0.00
2018-05-25T01:02:31.058Z,0.00
2018-05-25T01:03:30.986Z,0.00
2018-05-25T01:05:23.759Z,0.00
2018-05-25T01:06:23.694Z,0.00
2018-05-25T01:08:16.477Z,0.00
2018-05-25T01:09:16.405Z,0.00
2018-05-25T01:11:09.174Z,0.00
2018-05-25T01:12:09.116Z,0.00
2018-05-25T01:14:01.945Z,0.00
2018-05-25T01:15:01.868Z,0.00
2018-05-25T01:16:54.686Z,0.00
2018-05-25T01:17:54.572Z,0.00
2018-05-25T01:19:47.351Z,0.00
2018-05-25T01:20:47.278Z,0.00
2018-05-25T01:22:40.068Z,0.00
2018-05-25T01:23:39.987Z,0.00
2018-05-25T01:25:32.749Z,0.00
2018-05-25T01:26:32.690Z,0.00
2018-05-25T01:28:25.484Z,0.00
2018-05-25T01:29:25.403Z,0.00
2018-05-25T01:31:18.167Z,0.00
2018-05-25T01:32:18.106Z,0.00
2018-05-25T01:34:10.903Z,0.00
2018-05-25T01:35:10.820Z,0.00
2018-05-25T01:37:03.589Z,0.00
2018-05-25T01:38:03.533Z,0.00
2018-05-25T01:39:56.324Z,0.00
2018-05-25T01:40:56.244Z,0.00
2018-05-25T01:42:49.020Z,0.00
2018-05-25T01:43:48.953Z,0.00
2018-05-25T01:45:41.726Z,0.00
2018-05-25T01:46:41.662Z,0.00
2018-05-25T01:48:34.440Z,0.00
2018-05-25T01:49:34.371Z,0.00
2018-05-25T01:51:27.136Z,0.00
2018-05-25T01:52:27.075Z,0.00
2018-05-25T01:54:19.851Z,0.00
2018-05-25T01:55:19.783Z,0.00
2018-05-25T01:57:12.555Z,0.00
2018-05-25T01:58:12.491Z,0.00
2018-05-25T02:00:05.264Z,0.00
2018-05-25T02:01:05.194Z,0.00
2018-05-25T02:02:57.979Z,0.00
2018-05-25T02:03:57.906Z,0.00
2018-05-25T02:05:50.684Z,0.00
2018-05-25T02:06:50.622Z,0.00
2018-05-25T02:08:43.520Z,0.00
2018-05-25T02:09:43.428Z,0.00
2018-05-25T02:11:36.229Z,0.00
2018-05-25T02:12:36.169Z,0.00
2018-05-25T02:14:28.947Z,0.00
2018-05-25T02:15:28.863Z,0.00
2018-05-25T02:17:21.646Z,0.00
2018-05-25T02:18:21.585Z,0.00
2018-05-25T02:20:14.367Z,0.00
2018-05-25T02:21:14.290Z,0.00
2018-05-25T02:23:07.077Z,0.00
2018-05-25T02:24:07.010Z,0.00
2018-05-25T02:25:59.799Z,0.00
2018-05-25T02:26:59.714Z,0.00
2018-05-25T02:28:52.499Z,0.00
2018-05-25T02:29:52.425Z,0.00
2018-05-25T02:31:45.209Z,0.00
2018-05-25T02:32:45.137Z,0.00
2018-05-25T02:34:37.921Z,0.00
2018-05-25T02:35:37.851Z,0.00
2018-05-25T02:37:30.611Z,0.00
2018-05-25T02:38:30.546Z,0.00
2018-05-25T02:40:23.341Z,0.00
2018-05-25T02:41:23.255Z,0.00
2018-05-25T02:43:16.025Z,0.00
2018-05-25T02:44:15.964Z,0.00
2018-05-25T02:46:08.760Z,0.00
2018-05-25T02:47:08.680Z,0.00
2018-05-25T02:49:01.490Z,0.00
2018-05-25T02:50:01.412Z,0.00
2018-05-25T02:51:54.177Z,0.00
2018-05-25T02:52:54.112Z,0.00
2018-05-25T02:54:46.901Z,5.63
2018-05-25T02:55:46.811Z,5.63
2018-05-25T02:57:39.615Z,5.63
2018-05-25T02:58:39.518Z,5.63
2018-05-25T03:00:32.289Z,5.63
2018-05-25T03:01:32.213Z,5.63
2018-05-25T03:03:24.992Z,5.63
2018-05-25T03:04:24.920Z,5.63
2018-05-25T03:06:17.724Z,11.25
2018-05-25T03:07:17.651Z,11.25
2018-05-25T03:09:10.442Z,11.25
2018-05-25T03:10:10.376Z,11.25
2018-05-25T03:12:03.158Z,11.25
2018-05-25T03:13:03.105Z,16.88
2018-05-25T03:14:55.869Z,16.88
2018-05-25T03:15:55.802Z,16.88
2018-05-25T03:17:48.560Z,16.88
2018-05-25T03:18:48.500Z,16.88
2018-05-25T03:20:41.278Z,22.50
2018-05-25T03:21:41.198Z,22.50
2018-05-25T03:23:33.964Z,22.50
2018-05-25T03:24:33.903Z,22.50
2018-05-25T03:26:26.679Z,28.13
2018-05-25T03:27:26.602Z,28.13
2018-05-25T03:29:19.376Z,28.13
2018-05-25T03:30:19.310Z,28.13
2018-05-25T03:32:12.075Z,33.75
2018-05-25T03:33:11.998Z,33.75
2018-05-25T03:35:04.784Z,33.75
2018-05-25T03:36:04.709Z,33.75
2018-05-25T03:37:57.488Z,39.38
2018-05-25T03:38:57.427Z,39.38
2018-05-25T03:40:50.195Z,39.38
2018-05-25T03:41:50.125Z,39.38
2018-05-25T03:43:42.892Z,45.00
2018-05-25T03:44:42.822Z,45.00
2018-05-25T03:46:35.602Z,45.00
2018-05-25T03:47:35.521Z,45.00
2018-05-25T03:49:28.304Z,50.63
2018-05-25T03:50:28.240Z,50.63
2018-05-25T03:52:21.017Z,50.63
2018-05-25T03:53:20.948Z,56.25
2018-05-25T03:55:13.728Z,56.25
2018-05-25T03:56:13.660Z,56.25
2018-05-25T03:58:06.443Z,56.25
2018-05-25T03:59:06.394Z,61.88
2018-05-25T04:00:59.143Z,61.88
2018-05-25T04:01:59.075Z,61.88
2018-05-25T04:03:51.846Z,61.88
2018-05-25T04:04:51.816Z,67.50
2018-05-25T04:06:44.565Z,67.50
2018-05-25T04:07:44.531Z,67.50
2018-05-25T04:09:37.266Z,67.50
2018-05-25T04:10:37.198Z,73.13
2018-05-25T04:12:29.987Z,73.13
2018-05-25T04:13:29.914Z,73.13
2018-05-25T04:15:22.808Z,78.75
2018-05-25T04:16:22.622Z,78.75
2018-05-25T04:18:15.411Z,78.75
2018-05-25T04:19:15.357Z,78.75
2018-05-25T04:21:08.120Z,84.38
2018-05-25T04:22:08.040Z,84.38
2018-05-25T04:24:00.813Z,84.38
2018-05-25T04:25:00.749Z,84.38
2018-05-25T04:26:53.547Z,90.00
2018-05-25T04:27:53.467Z,90.00
2018-05-25T04:29:46.281Z,95.63
2018-05-25T04:30:46.181Z,95.63
2018-05-25T04:32:38.957Z,101.25
2018-05-25T04:33:38.877Z,106.88
2018-05-25T04:35:31.671Z,112.50
2018-05-25T04:36:31.607Z,118.13
2018-05-25T04:38:24.411Z,118.13
2018-05-25T04:39:24.324Z,123.75
2018-05-25T04:41:17.097Z,129.38
2018-05-25T04:42:17.023Z,135.00
2018-05-25T04:44:09.796Z,140.63
2018-05-25T04:45:09.739Z,140.63
2018-05-25T04:47:02.565Z,146.25
2018-05-25T04:48:02.466Z,151.88
2018-05-25T04:49:55.240Z,163.13
2018-05-25T04:50:55.179Z,163.13
2018-05-25T04:52:47.974Z,163.13
2018-05-25T04:53:47.888Z,174.38
2018-05-25T04:55:40.981Z,185.63
2018-05-25T04:56:40.646Z,219.38
2018-05-25T04:58:33.432Z,489.38
2018-05-25T04:59:33.335Z,624.38
2018-05-25T05:01:26.128Z,652.50
2018-05-25T05:02:26.045Z,641.25
2018-05-25T05:04:18.856Z,590.63
2018-05-25T05:05:18.766Z,585.00
2018-05-25T05:07:11.556Z,596.25
2018-05-25T05:08:11.473Z,613.13
2018-05-25T05:10:04.272Z,534.38
2018-05-25T05:11:04.206Z,500.63
2018-05-25T05:12:57.003Z,495.00
2018-05-25T05:13:56.921Z,500.63
2018-05-25T05:15:49.721Z,478.13
2018-05-25T05:16:49.653Z,483.75
2018-05-25T05:18:42.451Z,478.13
2018-05-25T05:19:42.380Z,466.88
2018-05-25T05:21:35.159Z,466.88
2018-05-25T05:22:35.106Z,466.88
2018-05-25T05:24:27.929Z,466.88
2018-05-25T05:25:27.849Z,461.25
2018-05-25T05:27:20.635Z,455.63
2018-05-25T05:28:20.566Z,461.25
2018-05-25T05:30:13.348Z,461.25
2018-05-25T05:31:13.288Z,461.25
2018-05-25T05:33:06.091Z,461.25
2018-05-25T05:34:06.016Z,466.88
2018-05-25T05:35:58.803Z,466.88
2018-05-25T05:36:58.746Z,472.50
2018-05-25T05:38:51.565Z,472.50
2018-05-25T05:39:51.492Z,472.50
2018-05-25T05:41:44.269Z,472.50
2018-05-25T05:42:44.217Z,478.13
2018-05-25T05:44:37.011Z,478.13
2018-05-25T05:45:36.949Z,472.50
2018-05-25T05:47:29.748Z,500.63
2018-05-25T05:48:29.676Z,517.50
2018-05-25T05:50:22.465Z,523.13
2018-05-25T05:51:22.419Z,528.75
2018-05-25T05:53:15.211Z,540.00
2018-05-25T05:54:15.140Z,551.25
2018-05-25T05:56:07.924Z,573.75
2018-05-25T05:57:07.868Z,601.88
2018-05-25T05:59:00.676Z,641.25
2018-05-25T06:00:00.606Z,675.00
2018-05-25T06:01:53.415Z,770.63
2018-05-25T06:02:53.359Z,860.63
2018-05-25T06:04:46.182Z,1226.25
2018-05-25T06:05:46.103Z,1490.63
2018-05-25T06:07:38.904Z,1721.25
2018-05-25T06:08:38.850Z,1755.00
2018-05-25T06:10:31.646Z,1788.75
2018-05-25T06:11:31.582Z,1867.50
2018-05-25T06:13:24.394Z,2435.63
2018-05-25T06:14:24.333Z,2745.00
2018-05-25T06:16:17.114Z,3465.00
2018-05-25T06:17:17.058Z,4095.00
2018-05-25T06:19:09.888Z,4263.75
2018-05-25T06:20:09.797Z,3931.88
2018-05-25T06:22:02.608Z,3285.00
2018-05-25T06:23:02.548Z,3065.63
2018-05-25T06:24:55.351Z,2812.50
2018-05-25T06:25:55.305Z,2767.50
2018-05-25T06:27:48.073Z,2238.75
2018-05-25T06:28:48.013Z,2368.13
2018-05-25T06:30:40.809Z,2385.00
2018-05-25T06:31:40.775Z,2120.63
2018-05-25T06:33:33.556Z,1923.75
2018-05-25T06:34:33.492Z,1884.38
2018-05-25T06:36:26.287Z,1766.25
2018-05-25T06:37:26.229Z,1631.25
2018-05-25T06:39:19.023Z,1513.13
2018-05-25T06:40:18.964Z,1541.25
2018-05-25T06:42:11.809Z,1586.25
2018-05-25T06:43:11.715Z,1440.00
2018-05-25T06:45:04.552Z,1411.88
2018-05-25T06:46:04.477Z,1445.63
2018-05-25T06:47:57.274Z,1530.00
2018-05-25T06:48:57.220Z,1428.75
2018-05-25T06:50:50.042Z,1372.50
2018-05-25T06:51:49.972Z,1350.00
2018-05-25T06:53:42.789Z,1271.25
2018-05-25T06:54:42.727Z,1271.25
2018-05-25T06:56:35.528Z,1563.75
2018-05-25T06:57:35.469Z,1591.88
2018-05-25T06:59:28.279Z,1355.63
2018-05-25T07:00:28.217Z,1445.63
2018-05-25T07:02:21.021Z,1569.38
2018-05-25T07:03:20.967Z,1704.38
2018-05-25T07:05:13.780Z,1580.63
2018-05-25T07:06:13.723Z,1620.00
2018-05-25T07:08:06.529Z,1766.25
2018-05-25T07:09:06.471Z,1850.63
2018-05-25T07:10:59.315Z,2205.00
2018-05-25T07:11:59.227Z,2182.50
2018-05-25T07:13:52.041Z,2525.63
2018-05-25T07:14:51.978Z,2986.88
2018-05-25T07:16:44.805Z,3358.13
2018-05-25T07:17:44.749Z,3116.25
2018-05-25T07:19:37.557Z,2379.38
2018-05-25T07:20:37.487Z,2137.50
2018-05-25T07:22:30.286Z,2463.75
2018-05-25T07:23:30.231Z,2542.50
2018-05-25T07:25:23.118Z,2683.13
2018-05-25T07:26:22.976Z,2666.25
2018-05-25T07:28:15.779Z,2655.00
2018-05-25T07:29:15.727Z,2761.88
2018-05-25T07:31:08.559Z,2559.38
2018-05-25T07:32:08.488Z,2677.50
2018-05-25T07:34:01.288Z,2801.25
2018-05-25T07:35:01.259Z,2790.00
2018-05-25T07:36:54.049Z,2610.00
2018-05-25T07:37:53.993Z,2469.38
2018-05-25T07:39:46.828Z,2480.63
2018-05-25T07:40:46.737Z,2379.38
2018-05-25T07:42:39.537Z,2536.88
2018-05-25T07:43:39.501Z,2649.38
2018-05-25T07:45:32.300Z,2520.00
2018-05-25T07:46:32.244Z,2581.88
2018-05-25T07:48:25.058Z,2503.13
2018-05-25T07:49:24.993Z,2261.25
2018-05-25T07:51:17.839Z,2385.00
2018-05-25T07:52:17.749Z,2475.00
2018-05-25T07:54:10.550Z,2553.75
2018-05-25T07:55:10.502Z,2531.25
2018-05-25T07:57:03.375Z,2536.88
2018-05-25T07:58:03.313Z,2514.38
2018-05-25T07:59:56.128Z,2683.13
2018-05-25T08:00:56.073Z,2655.00
2018-05-25T08:02:48.887Z,2700.00
2018-05-25T08:03:48.844Z,2761.88
2018-05-25T08:05:41.664Z,2688.75
2018-05-25T08:06:41.601Z,2660.63
2018-05-25T08:08:34.412Z,2874.38
2018-05-25T08:09:34.363Z,2863.13
2018-05-25T08:11:27.177Z,2863.13
2018-05-25T08:12:27.119Z,2863.13
2018-05-25T08:14:19.947Z,2784.38
2018-05-25T08:15:19.900Z,2868.75
2018-05-25T08:17:12.713Z,2958.75
2018-05-25T08:18:12.660Z,3026.25
2018-05-25T08:20:05.457Z,3082.50
2018-05-25T08:21:05.403Z,3082.50
2018-05-25T08:22:58.215Z,3071.25
2018-05-25T08:23:58.211Z,3043.13
2018-05-25T08:25:51.583Z,3076.88
2018-05-25T08:26:51.519Z,2981.25
2018-05-25T08:28:44.336Z,3076.88
2018-05-25T08:29:44.271Z,3105.00
2018-05-25T08:31:37.103Z,3178.13
2018-05-25T08:32:37.047Z,3172.50
2018-05-25T08:34:29.841Z,3071.25
2018-05-25T08:35:29.790Z,3133.13
2018-05-25T08:37:22.617Z,3161.25
2018-05-25T08:38:22.555Z,3195.00
2018-05-25T08:40:15.398Z,3150.00
2018-05-25T08:41:15.326Z,2998.13
2018-05-25T08:43:08.146Z,3048.75
2018-05-25T08:44:08.090Z,3307.50
2018-05-25T08:46:00.905Z,3375.00
2018-05-25T08:47:00.858Z,3375.00
2018-05-25T08:48:53.683Z,3273.75
2018-05-25T08:49:53.625Z,3256.88
2018-05-25T08:51:46.467Z,3166.88
2018-05-25T08:52:46.394Z,3285.00
2018-05-25T08:54:39.246Z,2947.50
2018-05-25T08:55:39.156Z,2835.00
2018-05-25T08:57:31.994Z,3313.13
2018-05-25T08:58:31.943Z,3195.00
2018-05-25T09:00:24.764Z,3234.38
2018-05-25T09:01:24.692Z,3375.00
2018-05-25T09:03:17.517Z,3223.13
2018-05-25T09:04:17.458Z,3200.63
2018-05-25T09:06:10.283Z,3172.50
2018-05-25T09:07:10.233Z,3211.88
2018-05-25T09:09:03.083Z,3099.38
2018-05-25T09:10:02.991Z,3195.00
2018-05-25T09:11:55.808Z,3391.88
2018-05-25T09:12:55.746Z,3386.25
2018-05-25T09:14:48.572Z,3048.75
2018-05-25T09:15:48.531Z,3256.88
2018-05-25T09:17:41.426Z,3436.88
2018-05-25T09:18:41.313Z,3397.50
2018-05-25T09:20:34.104Z,3262.50
2018-05-25T09:21:34.069Z,3341.25
2018-05-25T09:23:26.867Z,3273.75
2018-05-25T09:24:26.806Z,3380.63
2018-05-25T09:26:19.675Z,3318.75
2018-05-25T09:27:19.584Z,3358.13
2018-05-25T09:29:12.400Z,3217.50
2018-05-25T09:30:12.368Z,3228.75
2018-05-25T09:32:05.198Z,3560.63
2018-05-25T09:33:05.137Z,3678.75
2018-05-25T09:34:57.948Z,3510.00
2018-05-25T09:35:57.907Z,3577.50
2018-05-25T09:37:50.715Z,3476.25
2018-05-25T09:38:50.658Z,3656.25
2018-05-25T09:40:43.478Z,3493.13
2018-05-25T09:41:43.439Z,3459.38
2018-05-25T09:43:36.264Z,3375.00
2018-05-25T09:44:36.203Z,3335.63
2018-05-25T09:46:29.044Z,3346.88
2018-05-25T09:47:28.960Z,3285.00
2018-05-25T09:49:21.758Z,2829.38
2018-05-25T09:50:21.767Z,2908.13
2018-05-25T09:52:14.534Z,3431.25
2018-05-25T09:53:14.472Z,3436.88
2018-05-25T09:55:07.298Z,3588.75
2018-05-25T09:56:07.290Z,3566.25
2018-05-25T09:58:00.053Z,3633.75
2018-05-25T09:59:00.013Z,3481.88
2018-05-25T10:00:52.807Z,3510.00
2018-05-25T10:01:52.758Z,3369.38
2018-05-25T10:03:45.597Z,2756.25
2018-05-25T10:04:45.529Z,1288.13
2018-05-25T10:06:38.333Z,748.13
2018-05-25T10:07:38.284Z,815.63
2018-05-25T10:09:31.107Z,3037.50
2018-05-25T10:10:31.033Z,3583.13
2018-05-25T10:12:23.865Z,2536.88
2018-05-25T10:13:23.796Z,309.38
2018-05-25T10:15:16.625Z,450.00
2018-05-25T10:16:16.578Z,2823.75
2018-05-25T10:18:09.403Z,821.25
2018-05-25T10:19:09.344Z,781.88
2018-05-25T10:21:02.150Z,562.50
2018-05-25T10:22:02.092Z,360.00
2018-05-25T10:23:54.898Z,376.88
2018-05-25T10:24:54.833Z,973.13
2018-05-25T10:26:47.642Z,405.00
2018-05-25T10:27:47.608Z,382.50
2018-05-25T10:29:40.396Z,3116.25
2018-05-25T10:30:40.339Z,3273.75
2018-05-25T10:32:33.180Z,579.38
2018-05-25T10:33:33.089Z,3262.50
2018-05-25T10:35:25.884Z,3195.00
2018-05-25T10:36:25.833Z,3189.38
2018-05-25T10:38:18.640Z,3251.25
2018-05-25T10:39:18.589Z,3155.63
2018-05-25T10:41:11.379Z,3189.38
2018-05-25T10:42:11.341Z,3206.25
2018-05-25T10:44:04.132Z,3245.63
2018-05-25T10:45:04.069Z,3380.63
2018-05-25T10:46:56.885Z,2958.75
2018-05-25T10:47:56.835Z,2902.50
2018-05-25T10:49:49.641Z,2632.50
2018-05-25T10:50:49.587Z,3048.75
2018-05-25T10:52:42.401Z,973.13
2018-05-25T10:53:42.333Z,646.88
2018-05-25T10:55:35.127Z,725.63
2018-05-25T10:56:35.062Z,489.38
2018-05-25T10:58:27.906Z,298.13
2018-05-25T10:59:27.818Z,303.75
2018-05-25T11:01:20.612Z,523.13
2018-05-25T11:02:20.560Z,511.88
2018-05-25T11:04:13.362Z,506.25
2018-05-25T11:05:13.302Z,500.63
2018-05-25T11:07:06.100Z,534.38
2018-05-25T11:08:06.052Z,545.63
2018-05-25T11:09:58.874Z,551.25
2018-05-25T11:10:58.791Z,540.00
2018-05-25T11:12:51.600Z,489.38
2018-05-25T11:13:51.539Z,506.25
2018-05-25T11:15:44.354Z,534.38
2018-05-25T11:16:44.290Z,326.25
2018-05-25T11:18:37.101Z,331.88
2018-05-25T11:19:37.034Z,523.13
2018-05-25T11:21:29.832Z,331.88
2018-05-25T11:22:29.774Z,517.50
2018-05-25T11:24:22.593Z,562.50
2018-05-25T11:25:22.510Z,596.25
2018-05-25T11:27:15.316Z,641.25
2018-05-25T11:28:15.251Z,669.38
2018-05-25T11:30:08.059Z,663.75
2018-05-25T11:31:07.987Z,720.00
2018-05-25T11:33:00.795Z,607.50
2018-05-25T11:34:00.744Z,1608.75
2018-05-25T11:35:53.562Z,2340.00
2018-05-25T11:36:53.491Z,1721.25
2018-05-25T11:38:46.338Z,1822.50
2018-05-25T11:39:46.250Z,1929.38
2018-05-25T11:41:39.055Z,2379.38
2018-05-25T11:42:38.998Z,1057.50
2018-05-25T11:44:31.831Z,393.75
2018-05-25T11:45:31.767Z,393.75
2018-05-25T11:47:24.555Z,421.88
2018-05-25T11:48:24.514Z,573.75
2018-05-25T11:50:17.359Z,433.13
2018-05-25T11:51:17.247Z,528.75
2018-05-25T11:53:10.047Z,495.00
2018-05-25T11:54:09.991Z,511.88
2018-05-25T11:56:02.788Z,455.63
2018-05-25T11:57:02.737Z,421.88
2018-05-25T11:58:55.534Z,410.63
2018-05-25T11:59:55.472Z,382.50
2018-05-25T12:01:48.315Z,348.75
2018-05-25T12:02:48.210Z,315.00
2018-05-25T12:04:41.008Z,298.13
2018-05-25T12:05:40.931Z,292.50
2018-05-25T12:07:33.737Z,309.38
2018-05-25T12:08:33.678Z,309.38
2018-05-25T12:10:26.487Z,309.38
2018-05-25T12:11:26.410Z,315.00
2018-05-25T12:13:19.208Z,309.38
2018-05-25T12:14:19.153Z,303.75
2018-05-25T12:16:11.956Z,309.38
2018-05-25T12:17:11.891Z,303.75
2018-05-25T12:19:04.675Z,303.75
2018-05-25T12:20:04.621Z,275.63
2018-05-25T12:21:57.431Z,281.25
2018-05-25T12:22:57.356Z,264.38
2018-05-25T12:24:50.152Z,264.38
2018-05-25T12:25:50.152Z,253.13
2018-05-25T12:27:42.875Z,253.13
2018-05-25T12:28:42.815Z,264.38
2018-05-25T12:30:35.614Z,286.88
2018-05-25T12:31:35.549Z,292.50
2018-05-25T12:33:28.339Z,298.13
2018-05-25T12:34:28.281Z,298.13
2018-05-25T12:36:21.090Z,303.75
2018-05-25T12:37:21.010Z,309.38
2018-05-25T12:39:13.784Z,326.25
2018-05-25T12:40:13.728Z,343.13
2018-05-25T12:42:06.523Z,343.13
2018-05-25T12:43:06.471Z,343.13
2018-05-25T12:44:59.256Z,371.25
2018-05-25T12:45:59.191Z,376.88
2018-05-25T12:47:51.985Z,410.63
2018-05-25T12:48:51.918Z,421.88
2018-05-25T12:50:44.787Z,455.63
2018-05-25T12:51:44.710Z,472.50
2018-05-25T12:53:37.494Z,483.75
2018-05-25T12:54:37.444Z,466.88
2018-05-25T12:56:30.242Z,433.13
2018-05-25T12:57:30.169Z,382.50
2018-05-25T12:59:22.983Z,320.63
2018-05-25T13:00:22.940Z,303.75
2018-05-25T13:02:15.719Z,286.88
2018-05-25T13:03:15.649Z,275.63
2018-05-25T13:05:08.438Z,281.25
2018-05-25T13:06:08.402Z,270.00
2018-05-25T13:08:01.184Z,270.00
2018-05-25T13:09:01.120Z,275.63
2018-05-25T13:10:53.923Z,275.63
2018-05-25T13:11:53.853Z,270.00
2018-05-25T13:13:46.637Z,275.63
2018-05-25T13:14:46.586Z,292.50
2018-05-25T13:16:39.371Z,303.75
2018-05-25T13:17:39.326Z,298.13
2018-05-25T13:19:32.116Z,275.63
2018-05-25T13:20:32.048Z,286.88
2018-05-25T13:22:24.844Z,270.00
2018-05-25T13:23:24.792Z,253.13
2018-05-25T13:25:17.561Z,225.00
2018-05-25T13:26:17.508Z,230.63
2018-05-25T13:28:10.318Z,196.88
2018-05-25T13:29:10.242Z,191.25
2018-05-25T13:31:03.048Z,202.50
2018-05-25T13:32:02.982Z,219.38
2018-05-25T13:33:55.774Z,230.63
2018-05-25T13:34:55.714Z,236.25
2018-05-25T13:36:48.511Z,185.63
2018-05-25T13:37:48.445Z,213.75
2018-05-25T13:39:41.225Z,191.25
2018-05-25T13:40:41.164Z,191.25
2018-05-25T13:42:33.964Z,185.63
2018-05-25T13:43:33.897Z,202.50
2018-05-25T13:45:26.674Z,219.38
2018-05-25T13:46:26.638Z,219.38
2018-05-25T13:48:19.481Z,225.00
2018-05-25T13:49:19.390Z,213.75
2018-05-25T13:51:12.236Z,196.88
2018-05-25T13:52:12.182Z,196.88
2018-05-25T13:54:04.980Z,219.38
2018-05-25T13:55:04.915Z,225.00
2018-05-25T13:56:57.722Z,241.88
2018-05-25T13:57:57.655Z,236.25
2018-05-25T13:59:50.461Z,230.63
2018-05-25T14:00:50.414Z,247.50
2018-05-25T14:02:43.186Z,230.63
2018-05-25T14:03:43.105Z,230.63
2018-05-25T14:05:35.941Z,230.63
2018-05-25T14:06:35.823Z,225.00
2018-05-25T14:08:28.667Z,230.63
2018-05-25T14:09:28.563Z,241.88
2018-05-25T14:11:21.418Z,258.75
2018-05-25T14:12:21.313Z,258.75
2018-05-25T14:14:14.115Z,264.38
2018-05-25T14:15:14.031Z,264.38
2018-05-25T14:17:06.834Z,264.38
2018-05-25T14:18:06.752Z,270.00
2018-05-25T14:19:59.546Z,281.25
2018-05-25T14:20:59.501Z,292.50
2018-05-25T14:22:52.296Z,298.13
2018-05-25T14:23:52.255Z,309.38
2018-05-25T14:25:45.003Z,326.25
2018-05-25T14:26:44.953Z,326.25
2018-05-25T14:28:37.743Z,337.50
2018-05-25T14:29:37.673Z,337.50
2018-05-25T14:31:30.523Z,315.00
2018-05-25T14:32:30.415Z,292.50
2018-05-25T14:34:23.222Z,264.38
2018-05-25T14:35:23.151Z,247.50
2018-05-25T14:37:15.950Z,225.00
2018-05-25T14:38:15.880Z,213.75
2018-05-25T14:40:08.664Z,196.88
2018-05-25T14:41:08.613Z,185.63
2018-05-25T14:43:01.409Z,196.88
2018-05-25T14:44:01.337Z,191.25
2018-05-25T14:45:54.147Z,213.75
2018-05-25T14:46:54.076Z,213.75
2018-05-25T14:48:46.869Z,213.75
2018-05-25T14:49:46.798Z,208.13
2018-05-25T14:51:39.595Z,208.13
2018-05-25T14:52:39.548Z,208.13
2018-05-25T14:54:32.336Z,213.75
2018-05-25T14:55:32.304Z,213.75
2018-05-25T14:57:25.079Z,219.38
2018-05-25T14:58:24.997Z,208.13
2018-05-25T15:00:17.795Z,213.75
2018-05-25T15:01:17.761Z,213.75
2018-05-25T15:03:10.561Z,213.75
2018-05-25T15:04:10.480Z,213.75
2018-05-25T15:06:03.278Z,208.13
2018-05-25T15:07:03.220Z,202.50
2018-05-25T15:08:56.165Z,196.88
2018-05-25T15:09:55.982Z,202.50
2018-05-25T15:11:48.816Z,202.50
2018-05-25T15:12:48.729Z,202.50
2018-05-25T15:14:41.525Z,196.88
2018-05-25T15:15:41.449Z,196.88
2018-05-25T15:17:34.240Z,196.88
2018-05-25T15:18:34.200Z,196.88
2018-05-25T15:20:26.975Z,202.50
2018-05-25T15:21:26.906Z,208.13
2018-05-25T15:23:19.704Z,208.13
2018-05-25T15:24:19.638Z,213.75
2018-05-25T15:26:12.435Z,225.00
2018-05-25T15:27:12.362Z,225.00
2018-05-25T15:29:05.157Z,213.75
2018-05-25T15:30:05.094Z,208.13
2018-05-25T15:31:57.942Z,196.88
2018-05-25T15:32:57.826Z,191.25
2018-05-25T15:34:50.738Z,185.63
2018-05-25T15:35:50.623Z,180.00
2018-05-25T15:37:43.414Z,180.00
2018-05-25T15:38:43.421Z,180.00
2018-05-25T15:40:36.169Z,180.00
2018-05-25T15:41:36.093Z,174.38
2018-05-25T15:43:28.903Z,174.38
2018-05-25T15:44:28.824Z,174.38
2018-05-25T15:46:21.671Z,174.38
2018-05-25T15:47:21.586Z,168.75
2018-05-25T15:49:14.380Z,168.75
2018-05-25T15:50:14.313Z,168.75
2018-05-25T15:52:07.138Z,168.75
2018-05-25T15:53:07.085Z,168.75
2018-05-25T15:54:59.900Z,168.75
2018-05-25T15:55:59.821Z,168.75
2018-05-25T15:57:52.594Z,168.75
2018-05-25T15:58:52.531Z,168.75
2018-05-25T16:00:45.329Z,163.13
2018-05-25T16:01:45.259Z,163.13
2018-05-25T16:03:38.995Z,163.13
2018-05-25T16:04:38.921Z,163.13
2018-05-25T16:06:31.663Z,157.50
2018-05-25T16:07:31.609Z,157.50
2018-05-25T16:09:24.399Z,157.50
2018-05-25T16:10:24.345Z,157.50
2018-05-25T16:12:17.112Z,157.50
2018-05-25T16:13:17.087Z,157.50
2018-05-25T16:15:09.848Z,157.50
2018-05-25T16:16:09.780Z,157.50
2018-05-25T16:18:02.590Z,157.50
2018-05-25T16:19:02.511Z,157.50
2018-05-25T16:20:55.318Z,157.50
2018-05-25T16:21:55.243Z,157.50
2018-05-25T16:23:48.160Z,157.50
2018-05-25T16:24:47.969Z,151.88
2018-05-25T16:26:40.784Z,151.88
2018-05-25T16:27:40.761Z,151.88
2018-05-25T16:29:33.517Z,151.88
2018-05-25T16:30:33.432Z,146.25
2018-05-25T16:32:26.199Z,146.25
2018-05-25T16:33:26.147Z,146.25
2018-05-25T16:35:18.937Z,146.25
2018-05-25T16:36:18.885Z,146.25
2018-05-25T16:38:11.833Z,140.63
2018-05-25T16:39:11.637Z,140.63
2018-05-25T16:41:04.423Z,140.63
2018-05-25T16:42:04.349Z,140.63
2018-05-25T16:43:57.136Z,135.00
2018-05-25T16:44:57.078Z,135.00
2018-05-25T16:46:49.876Z,135.00
2018-05-25T16:47:49.806Z,135.00
2018-05-25T16:49:42.598Z,135.00
2018-05-25T16:50:42.534Z,129.38
2018-05-25T16:52:35.327Z,129.38
2018-05-25T16:53:35.272Z,129.38
2018-05-25T16:55:28.067Z,129.38
2018-05-25T16:56:27.998Z,123.75
2018-05-25T16:58:20.783Z,123.75
2018-05-25T16:59:20.764Z,123.75
2018-05-25T17:01:13.518Z,118.13
2018-05-25T17:02:13.446Z,118.13
2018-05-25T17:04:30.739Z,123.75
2018-05-25T17:05:30.678Z,118.13
2018-05-25T17:07:23.462Z,112.50
2018-05-25T17:08:23.395Z,118.13
2018-05-25T17:10:16.232Z,112.50
2018-05-25T17:11:16.124Z,112.50
2018-05-25T17:13:08.919Z,106.88
2018-05-25T17:14:08.864Z,106.88
2018-05-25T17:16:01.657Z,106.88
2018-05-25T17:17:01.576Z,106.88
2018-05-25T17:18:54.366Z,106.88
2018-05-25T17:19:54.308Z,101.25
2018-05-25T17:21:47.105Z,106.88
2018-05-25T17:22:47.035Z,106.88
2018-05-25T17:24:39.837Z,95.63
2018-05-25T17:25:39.777Z,95.63
2018-05-25T17:27:32.595Z,95.63
2018-05-25T17:28:32.517Z,95.63
2018-05-25T17:30:25.381Z,90.00
2018-05-25T17:31:25.251Z,90.00
2018-05-25T17:33:18.044Z,90.00
2018-05-25T17:34:17.979Z,84.38
2018-05-25T17:36:10.823Z,84.38
2018-05-25T17:37:10.701Z,84.38
2018-05-25T17:39:03.492Z,84.38
2018-05-25T17:40:03.445Z,84.38
2018-05-25T17:41:56.254Z,84.38
2018-05-25T17:42:56.182Z,84.38
2018-05-25T17:44:49.036Z,78.75
2018-05-25T17:45:48.958Z,78.75
2018-05-25T17:47:41.746Z,78.75
2018-05-25T17:48:41.675Z,78.75
2018-05-25T17:50:34.504Z,73.13
2018-05-25T17:51:34.395Z,73.13
2018-05-25T17:53:27.209Z,73.13
2018-05-25T17:54:27.110Z,73.13
2018-05-25T17:56:19.892Z,67.50
2018-05-25T17:57:19.822Z,67.50
2018-05-25T17:59:12.614Z,67.50
2018-05-25T18:00:12.597Z,67.50
2018-05-25T18:02:05.344Z,61.88
2018-05-25T18:03:05.333Z,61.88
2018-05-25T18:04:58.059Z,67.50